Airfield :
LOGIN :

Register | Disclaimer

   EN    FR    IT 

 










Legend :    VFR   Marginal VFR   IFR   Intensive IFR   Very Intensive IFR
Visi :
Ceiling :
>= 8 km
>= 3000ft
5 to 8 km
1000 to 3000 ft
1500m to 5 km
500 to 1000 ft
800 to 1500m
200 to 500 ft
< 800m
< 200 ft
Symbols :   Thunderstorms  Fog  Heavy snow  Heavy precipitations  Wind > 20 kt
SIGMETs :     Misc.  Thunderstorms  Icing  Turbulence  Mountain Waves  Volcanic Ashes






- Airport Elevation : 1363 ft


ETIC - Grafenwohr Army Air Field

CURRENT METAR :
  • 101256Z AUTO 31007G14KT 9999 CLR 20/00 A3020 RMK AO2 SLP226 T02000004 $

EXPIRED METARs :
  • 101156Z AUTO 33006KT 9999 CLR 20/02 A3021 RMK AO2 SLP229 T01960020 10201 20056 57014 $
  • 101056Z AUTO 27003KT 9999 CLR 19/03 A3023 RMK AO2 SLP238 T01860028 $

TAF TAF ETIC
Valid from the 10 at 06:00 until the 11 at 12:00 UTC


100600Z 1006/1112 VRB06KT 9999 FEW060 QNH3021INS
BECMG 1011/1012 VRB06KT 9999 BKN040 QNH3017INS
BECMG 1020/1021 VRB06KT 9999 FEW030 QNH3025INS
TEMPO 1103/1106 8000 BR TX20/1014Z TN04/1104Z



MET'MAP, your aeronautical weather chart ! - Copyright ORBIFLY December 2007 - Disclaimer

ORBIFLY MET'MAP TEAM :

Programming & Development : Alexandra Zaïnal
Concept & original design : Baudouin d'Aumeries
Assistance for programming : Marc-Olivier Méhu
Technical & hardware support : Manuel Goepfert

Contact : metmap@orbifly.com




SOURCES & CREDITS :

   NOAA